Surface observations / UK / EGOM

Quebec | Canada | USA | France | UK | Europe | Elsewhere

Display: Info & Location for EGOM | Help decoding METAR


Raw surface observations for station EGOM
EGOM 260350Z AUTO 34004KT 9999 NCD 12/10 Q1018=
EGOM 260250Z AUTO 01004KT 9999 NCD 13/11 Q1018=
EGOM 260150Z AUTO 02005KT 9999 NCD 13/11 Q1019=
EGOM 260050Z AUTO 36004KT 9999 NCD 13/11 Q1019=
EGOM 252350Z AUTO 03004KT 9999 NCD 13/11 Q1019=
EGOM 252250Z AUTO 05006KT 9999 NCD 15/12 Q1020=
EGOM 252150Z AUTO 06005KT 9999 NCD 16/12 Q1020=
EGOM 252050Z AUTO 07006KT 9999 NCD 17/12 Q1019=
EGOM 251950Z AUTO 06005KT 9999 NCD 20/13 Q1019=
EGOM 251850Z AUTO 12008KT 9999 NCD 22/12 Q1019=
EGOM 251750Z AUTO 12010KT 9999 NCD 24/11 Q1019=
EGOM 251650Z AUTO 11010KT 9999 NCD 25/11 Q1019=
EGOM 251550Z AUTO 12013KT 9999 NCD 25/11 Q1019=
EGOM 251450Z AUTO 12010KT 9999 NCD 26/13 Q1019=
EGOM 251350Z AUTO 12011KT 9999 NCD 26/12 Q1020=
EGOM 251250Z 10007KT CAVOK 26/08 Q1020 BLU=
EGOM 251150Z 10004KT CAVOK 26/11 Q1020 BLU=
EGOM 251050Z 16004KT CAVOK 24/11 Q1021 BLU=
EGOM 250950Z 06006KT CAVOK 23/11 Q1021 BLU=
EGOM 250850Z 08006KT CAVOK 21/13 Q1021 BLU=
EGOM 250750Z 08006KT CAVOK 19/15 Q1021 BLU=
EGOM 250650Z AUTO 06004KT 9999 NCD 15/14 Q1021=
EGOM 250550Z AUTO 06005KT 9999 NCD 12/12 Q1021=
EGOM 250450Z AUTO 04005KT 0900 FG SCT002/// 10/10 Q1021=